Jamison, PA (18929)

6:20 AM EST on February 07, 2016 (GMT -0500)
Woodfield Estates | | Change Station
CLOSE
Current Station
Personal Weather Station
Location: Jamison, PA
Elevation: 318 ft
Nearby Weather Stations

Elev 318 ft 40.25 °N, 75.09 °W | Updated 4 seconds ago

Clear
Clear
23.0 °F
Feels Like 23 °F
N
0.0
Wind Variable Wind from WSW

Today
High -- | Low -- °F
--% Chance of Precip.
Yesterday
High -- | Low -- °F
Precip. -- in
Pressure 30.22 in
Visibility 10.0 miles
Clouds Clear
Windchill 23 °F
Dew Point 21 °F
Humidity 93%
Rainfall 0.00 in
Snow Depth Not available.
7:03 AM 5:25 PM
Waning Crescent, 2% visible
METAR KDYL 071054Z AUTO 19005KT 10SM CLR M04/M06 A3019 RMK AO2 SLP231 I1000 T10441061
Pressure 30.22 in
Visibility 10.0 miles
Clouds Clear
Windchill 23 °F
Dew Point 21 °F
Humidity 93%
Rainfall 0.00 in
Snow Depth Not available.
7:03 AM 5:25 PM
Waning Crescent, 2% visible
METAR KDYL 071054Z AUTO 19005KT 10SM CLR M04/M06 A3019 RMK AO2 SLP231 I1000 T10441061

10-Day Weather Forecast

Almanac

Astronomy

Feb. 07, 2016 Rise Set
Actual Time
Civil Twilight
Nautical Twilight
Astronomical Twilight
Moon
Length of Visible Light
Length of Day
Tomorrow will be .
, % of the Moon is Illuminated

Today's Extremes

State Highs State Lows

Community

WunderPhotos

Upload Photos

1,891,170 photos uploaded!

WunderBlog® & News

Nearby

Air Quality

  Air Quality AQ Index Pollutant
Not available.

Snow Depth

Station Depth Elevation

Earthquake Activity

City Distance Mag. Time & Date
Minimum magnitude displayed is 2.5.

Coastal Water Temperatures

Place Temperature

Stations

Nearby Weather Stations

Station Location Temp. Windchill Dew Point Humidity Wind Precip. Elev Updated Type
                   

Watches & Warnings

There are currently no watches in effect.